sensor_id;sensor_type;location;lat;lon;timestamp;temperature;humidity
64869;DHT22;51349;52.424;10.840;2024-02-23T00:01:00;9.50;99.90
64869;DHT22;51349;52.424;10.840;2024-02-23T00:06:00;9.60;99.90
64869;DHT22;51349;52.424;10.840;2024-02-23T00:11:01;9.50;99.90
64869;DHT22;51349;52.424;10.840;2024-02-23T00:16:02;9.30;99.90
64869;DHT22;51349;52.424;10.840;2024-02-23T00:21:03;9.20;99.90
64869;DHT22;51349;52.424;10.840;2024-02-23T00:26:04;9.20;99.90
64869;DHT22;51349;52.424;10.840;2024-02-23T00:31:04;9.10;99.90
64869;DHT22;51349;52.424;10.840;2024-02-23T00:36:05;9.00;99.90
64869;DHT22;51349;52.424;10.840;2024-02-23T00:41:06;9.00;99.90
64869;DHT22;51349;52.424;10.840;2024-02-23T00:46:08;8.90;99.90
64869;DHT22;51349;52.424;10.840;2024-02-23T00:51:08;9.00;99.90
64869;DHT22;51349;52.424;10.840;2024-02-23T00:56:09;9.00;99.90
64869;DHT22;51349;52.424;10.840;2024-02-23T01:01:10;8.90;99.90
64869;DHT22;51349;52.424;10.840;2024-02-23T01:06:10;8.90;99.90
64869;DHT22;51349;52.424;10.840;2024-02-23T01:11:11;8.90;99.90
64869;DHT22;51349;52.424;10.840;2024-02-23T01:16:12;8.90;99.90
64869;DHT22;51349;52.424;10.840;2024-02-23T01:21:13;9.00;99.90
64869;DHT22;51349;52.424;10.840;2024-02-23T01:26:14;9.10;99.90
64869;DHT22;51349;52.424;10.840;2024-02-23T01:31:15;9.00;99.90
64869;DHT22;51349;52.424;10.840;2024-02-23T01:36:15;9.10;99.90
64869;DHT22;51349;52.424;10.840;2024-02-23T01:41:16;9.00;99.90
64869;DHT22;51349;52.424;10.840;2024-02-23T01:46:17;9.10;99.90
64869;DHT22;51349;52.424;10.840;2024-02-23T01:51:20;9.10;99.90
64869;DHT22;51349;52.424;10.840;2024-02-23T01:56:21;8.90;99.90
64869;DHT22;51349;52.424;10.840;2024-02-23T02:01:22;8.90;99.90
64869;DHT22;51349;52.424;10.840;2024-02-23T02:06:24;8.90;99.90
64869;DHT22;51349;52.424;10.840;2024-02-23T02:11:24;8.70;99.90
64869;DHT22;51349;52.424;10.840;2024-02-23T02:16:25;8.70;99.90
64869;DHT22;51349;52.424;10.840;2024-02-23T02:21:26;8.60;99.90
64869;DHT22;51349;52.424;10.840;2024-02-23T02:26:28;8.30;99.90
64869;DHT22;51349;52.424;10.840;2024-02-23T02:31:29;8.20;99.90
64869;DHT22;51349;52.424;10.840;2024-02-23T02:36:30;8.10;99.90
64869;DHT22;51349;52.424;10.840;2024-02-23T02:41:31;8.00;99.90
64869;DHT22;51349;52.424;10.840;2024-02-23T02:46:31;7.90;99.90
64869;DHT22;51349;52.424;10.840;2024-02-23T02:51:32;7.70;99.90
64869;DHT22;51349;52.424;10.840;2024-02-23T02:56:33;7.60;99.90
64869;DHT22;51349;52.424;10.840;2024-02-23T03:01:33;7.40;99.90
64869;DHT22;51349;52.424;10.840;2024-02-23T03:06:34;7.20;99.90
64869;DHT22;51349;52.424;10.840;2024-02-23T03:11:35;6.90;99.90
64869;DHT22;51349;52.424;10.840;2024-02-23T03:16:36;6.80;99.90
64869;DHT22;51349;52.424;10.840;2024-02-23T03:21:37;6.70;99.90
64869;DHT22;51349;52.424;10.840;2024-02-23T03:26:38;6.60;99.90
64869;DHT22;51349;52.424;10.840;2024-02-23T03:31:39;6.50;99.90
64869;DHT22;51349;52.424;10.840;2024-02-23T03:36:39;6.40;99.90
64869;DHT22;51349;52.424;10.840;2024-02-23T03:41:40;6.40;99.90
64869;DHT22;51349;52.424;10.840;2024-02-23T03:46:41;6.40;99.90
64869;DHT22;51349;52.424;10.840;2024-02-23T03:51:42;6.40;99.90
64869;DHT22;51349;52.424;10.840;2024-02-23T03:56:42;6.40;99.90
64869;DHT22;51349;52.424;10.840;2024-02-23T04:01:43;6.30;99.90
64869;DHT22;51349;52.424;10.840;2024-02-23T04:06:44;6.30;99.90
64869;DHT22;51349;52.424;10.840;2024-02-23T04:11:47;6.20;99.90
64869;DHT22;51349;52.424;10.840;2024-02-23T04:16:48;6.20;99.90
64869;DHT22;51349;52.424;10.840;2024-02-23T04:21:49;6.30;99.90
64869;DHT22;51349;52.424;10.840;2024-02-23T04:26:50;6.20;99.90
64869;DHT22;51349;52.424;10.840;2024-02-23T04:31:50;6.30;99.90
64869;DHT22;51349;52.424;10.840;2024-02-23T04:36:51;6.30;99.90
64869;DHT22;51349;52.424;10.840;2024-02-23T04:41:52;6.30;99.90
64869;DHT22;51349;52.424;10.840;2024-02-23T04:46:52;6.20;99.90
64869;DHT22;51349;52.424;10.840;2024-02-23T04:51:53;6.20;99.90
64869;DHT22;51349;52.424;10.840;2024-02-23T04:56:53;6.20;99.90
64869;DHT22;51349;52.424;10.840;2024-02-23T05:01:54;6.20;99.90
64869;DHT22;51349;52.424;10.840;2024-02-23T05:06:55;6.10;99.90
64869;DHT22;51349;52.424;10.840;2024-02-23T05:11:56;6.10;99.90
64869;DHT22;51349;52.424;10.840;2024-02-23T05:16:56;6.10;99.90
64869;DHT22;51349;52.424;10.840;2024-02-23T05:21:57;6.20;99.90
64869;DHT22;51349;52.424;10.840;2024-02-23T05:26:58;6.20;99.90
64869;DHT22;51349;52.424;10.840;2024-02-23T05:31:59;6.20;99.90
64869;DHT22;51349;52.424;10.840;2024-02-23T05:36:59;6.10;99.90
64869;DHT22;51349;52.424;10.840;2024-02-23T05:42:00;6.10;99.90
64869;DHT22;51349;52.424;10.840;2024-02-23T05:47:01;6.00;99.90
64869;DHT22;51349;52.424;10.840;2024-02-23T05:52:01;6.00;99.90
64869;DHT22;51349;52.424;10.840;2024-02-23T05:57:02;6.10;99.90
64869;DHT22;51349;52.424;10.840;2024-02-23T06:02:03;6.10;99.90
64869;DHT22;51349;52.424;10.840;2024-02-23T06:07:04;6.00;99.90
64869;DHT22;51349;52.424;10.840;2024-02-23T06:12:05;5.90;99.90
64869;DHT22;51349;52.424;10.840;2024-02-23T06:17:06;5.90;99.90
64869;DHT22;51349;52.424;10.840;2024-02-23T06:22:08;5.90;99.90
64869;DHT22;51349;52.424;10.840;2024-02-23T06:27:10;5.80;99.90
64869;DHT22;51349;52.424;10.840;2024-02-23T06:32:11;5.80;99.90
64869;DHT22;51349;52.424;10.840;2024-02-23T06:37:11;5.90;99.90
64869;DHT22;51349;52.424;10.840;2024-02-23T06:42:12;5.90;99.90
64869;DHT22;51349;52.424;10.840;2024-02-23T06:47:13;5.90;99.90
64869;DHT22;51349;52.424;10.840;2024-02-23T06:52:14;5.90;99.90
64869;DHT22;51349;52.424;10.840;2024-02-23T06:57:15;5.90;99.90
64869;DHT22;51349;52.424;10.840;2024-02-23T07:02:17;6.00;99.90
64869;DHT22;51349;52.424;10.840;2024-02-23T07:07:17;6.10;99.90
64869;DHT22;51349;52.424;10.840;2024-02-23T07:12:18;6.10;99.90
64869;DHT22;51349;52.424;10.840;2024-02-23T07:17:18;6.10;99.90
64869;DHT22;51349;52.424;10.840;2024-02-23T07:22:19;6.10;99.90
64869;DHT22;51349;52.424;10.840;2024-02-23T07:27:20;6.20;99.90
64869;DHT22;51349;52.424;10.840;2024-02-23T07:32:22;6.30;99.90
64869;DHT22;51349;52.424;10.840;2024-02-23T07:37:22;6.30;99.90
64869;DHT22;51349;52.424;10.840;2024-02-23T07:42:23;6.30;99.90
64869;DHT22;51349;52.424;10.840;2024-02-23T07:47:24;6.30;99.90
64869;DHT22;51349;52.424;10.840;2024-02-23T07:52:27;6.40;99.90
64869;DHT22;51349;52.424;10.840;2024-02-23T07:57:27;6.60;99.90
64869;DHT22;51349;52.424;10.840;2024-02-23T08:02:28;6.60;99.90
64869;DHT22;51349;52.424;10.840;2024-02-23T08:07:29;6.80;99.90
64869;DHT22;51349;52.424;10.840;2024-02-23T08:12:31;6.90;99.90
64869;DHT22;51349;52.424;10.840;2024-02-23T08:17:31;7.30;99.90
64869;DHT22;51349;52.424;10.840;2024-02-23T08:22:32;7.50;99.90
64869;DHT22;51349;52.424;10.840;2024-02-23T08:27:33;7.30;99.90
64869;DHT22;51349;52.424;10.840;2024-02-23T08:32:33;7.90;99.90
64869;DHT22;51349;52.424;10.840;2024-02-23T08:37:34;8.40;99.90
64869;DHT22;51349;52.424;10.840;2024-02-23T08:42:35;8.50;99.90
64869;DHT22;51349;52.424;10.840;2024-02-23T08:47:35;8.80;99.90
64869;DHT22;51349;52.424;10.840;2024-02-23T08:52:36;8.10;99.90
64869;DHT22;51349;52.424;10.840;2024-02-23T08:57:37;7.80;99.90
64869;DHT22;51349;52.424;10.840;2024-02-23T09:02:38;7.90;99.90
64869;DHT22;51349;52.424;10.840;2024-02-23T09:07:39;8.00;99.90
64869;DHT22;51349;52.424;10.840;2024-02-23T09:12:39;8.00;99.90
64869;DHT22;51349;52.424;10.840;2024-02-23T09:17:41;8.20;99.90
64869;DHT22;51349;52.424;10.840;2024-02-23T09:22:42;8.20;99.90
64869;DHT22;51349;52.424;10.840;2024-02-23T09:27:42;8.20;99.90
64869;DHT22;51349;52.424;10.840;2024-02-23T09:32:46;8.20;99.90
64869;DHT22;51349;52.424;10.840;2024-02-23T09:37:46;8.30;99.90
64869;DHT22;51349;52.424;10.840;2024-02-23T09:42:55;8.80;99.90
64869;DHT22;51349;52.424;10.840;2024-02-23T09:47:57;9.30;99.90
64869;DHT22;51349;52.424;10.840;2024-02-23T09:52:59;9.40;99.90
64869;DHT22;51349;52.424;10.840;2024-02-23T09:58:02;9.50;99.90
64869;DHT22;51349;52.424;10.840;2024-02-23T10:03:04;9.60;99.90
64869;DHT22;51349;52.424;10.840;2024-02-23T10:08:06;10.10;99.90
64869;DHT22;51349;52.424;10.840;2024-02-23T10:13:06;11.00;99.90
64869;DHT22;51349;52.424;10.840;2024-02-23T10:18:08;11.10;99.90
64869;DHT22;51349;52.424;10.840;2024-02-23T10:23:09;10.40;99.90
64869;DHT22;51349;52.424;10.840;2024-02-23T10:28:10;10.10;99.90
64869;DHT22;51349;52.424;10.840;2024-02-23T10:33:12;10.80;99.90
64869;DHT22;51349;52.424;10.840;2024-02-23T10:38:17;10.80;99.90
64869;DHT22;51349;52.424;10.840;2024-02-23T10:43:20;11.10;99.90
64869;DHT22;51349;52.424;10.840;2024-02-23T10:48:23;10.30;99.90
64869;DHT22;51349;52.424;10.840;2024-02-23T10:53:24;11.10;99.90
64869;DHT22;51349;52.424;10.840;2024-02-23T10:58:25;12.10;99.90
64869;DHT22;51349;52.424;10.840;2024-02-23T11:03:28;11.70;99.90
64869;DHT22;51349;52.424;10.840;2024-02-23T11:08:29;12.10;99.40
64869;DHT22;51349;52.424;10.840;2024-02-23T11:13:43;11.80;99.00
64869;DHT22;51349;52.424;10.840;2024-02-23T11:18:44;11.30;99.00
64869;DHT22;51349;52.424;10.840;2024-02-23T11:23:48;11.20;99.90
64869;DHT22;51349;52.424;10.840;2024-02-23T11:28:51;11.00;99.90
64869;DHT22;51349;52.424;10.840;2024-02-23T11:33:55;10.90;99.90
64869;DHT22;51349;52.424;10.840;2024-02-23T11:38:57;11.00;99.60
64869;DHT22;51349;52.424;10.840;2024-02-23T11:43:58;10.70;99.90
64869;DHT22;51349;52.424;10.840;2024-02-23T11:48:58;11.60;98.70
64869;DHT22;51349;52.424;10.840;2024-02-23T11:54:00;12.20;97.50
64869;DHT22;51349;52.424;10.840;2024-02-23T11:59:01;10.40;99.80
64869;DHT22;51349;52.424;10.840;2024-02-23T12:04:02;10.10;99.90
64869;DHT22;51349;52.424;10.840;2024-02-23T12:09:03;10.00;99.90
64869;DHT22;51349;52.424;10.840;2024-02-23T12:14:05;10.20;99.90
64869;DHT22;51349;52.424;10.840;2024-02-23T12:19:09;9.90;99.90
64869;DHT22;51349;52.424;10.840;2024-02-23T12:24:12;9.50;99.90
64869;DHT22;51349;52.424;10.840;2024-02-23T12:29:13;9.60;99.90
64869;DHT22;51349;52.424;10.840;2024-02-23T12:34:14;11.80;99.90
64869;DHT22;51349;52.424;10.840;2024-02-23T12:39:15;11.40;97.00
64869;DHT22;51349;52.424;10.840;2024-02-23T12:44:16;9.90;99.40
64869;DHT22;51349;52.424;10.840;2024-02-23T12:49:16;10.30;99.20
64869;DHT22;51349;52.424;10.840;2024-02-23T12:54:17;11.00;98.70
64869;DHT22;51349;52.424;10.840;2024-02-23T12:59:18;11.70;99.10
64869;DHT22;51349;52.424;10.840;2024-02-23T13:04:18;13.30;95.00
64869;DHT22;51349;52.424;10.840;2024-02-23T13:09:19;12.10;96.10
64869;DHT22;51349;52.424;10.840;2024-02-23T13:14:20;12.10;94.70
64869;DHT22;51349;52.424;10.840;2024-02-23T13:19:20;11.70;96.70
64869;DHT22;51349;52.424;10.840;2024-02-23T13:24:21;12.30;95.60
64869;DHT22;51349;52.424;10.840;2024-02-23T13:29:22;11.60;95.60
64869;DHT22;51349;52.424;10.840;2024-02-23T13:34:22;11.70;97.20
64869;DHT22;51349;52.424;10.840;2024-02-23T13:39:23;10.70;97.60
64869;DHT22;51349;52.424;10.840;2024-02-23T13:44:24;10.00;96.60
64869;DHT22;51349;52.424;10.840;2024-02-23T13:49:25;9.90;96.80
64869;DHT22;51349;52.424;10.840;2024-02-23T13:54:26;10.20;98.20
64869;DHT22;51349;52.424;10.840;2024-02-23T13:59:27;10.00;98.90
64869;DHT22;51349;52.424;10.840;2024-02-23T14:04:27;10.20;98.90
64869;DHT22;51349;52.424;10.840;2024-02-23T14:09:28;10.60;97.80
64869;DHT22;51349;52.424;10.840;2024-02-23T14:14:29;10.10;97.30
64869;DHT22;51349;52.424;10.840;2024-02-23T14:19:29;10.10;97.30
64869;DHT22;51349;52.424;10.840;2024-02-23T14:24:31;9.80;98.80
64869;DHT22;51349;52.424;10.840;2024-02-23T14:29:32;9.80;99.70
64869;DHT22;51349;52.424;10.840;2024-02-23T14:34:32;9.80;99.80
64869;DHT22;51349;52.424;10.840;2024-02-23T14:39:33;9.40;99.20
64869;DHT22;51349;52.424;10.840;2024-02-23T14:44:35;9.50;99.00
64869;DHT22;51349;52.424;10.840;2024-02-23T14:49:36;9.40;99.30
64869;DHT22;51349;52.424;10.840;2024-02-23T14:54:37;9.50;99.90
64869;DHT22;51349;52.424;10.840;2024-02-23T14:59:37;9.50;99.80
64869;DHT22;51349;52.424;10.840;2024-02-23T15:04:46;9.40;99.90
64869;DHT22;51349;52.424;10.840;2024-02-23T15:09:47;9.30;99.40
64869;DHT22;51349;52.424;10.840;2024-02-23T15:14:48;9.30;99.90
64869;DHT22;51349;52.424;10.840;2024-02-23T15:19:48;9.20;99.90
64869;DHT22;51349;52.424;10.840;2024-02-23T15:24:49;9.20;99.90
64869;DHT22;51349;52.424;10.840;2024-02-23T15:29:50;9.10;99.90
64869;DHT22;51349;52.424;10.840;2024-02-23T15:34:50;9.10;99.90
64869;DHT22;51349;52.424;10.840;2024-02-23T15:39:51;9.10;99.90
64869;DHT22;51349;52.424;10.840;2024-02-23T15:44:52;9.10;99.90
64869;DHT22;51349;52.424;10.840;2024-02-23T15:49:54;9.00;99.90
64869;DHT22;51349;52.424;10.840;2024-02-23T15:54:55;9.00;99.90
64869;DHT22;51349;52.424;10.840;2024-02-23T15:59:56;8.90;99.90
64869;DHT22;51349;52.424;10.840;2024-02-23T16:04:56;8.90;99.90
64869;DHT22;51349;52.424;10.840;2024-02-23T16:09:57;8.90;99.90
64869;DHT22;51349;52.424;10.840;2024-02-23T16:14:58;8.90;99.90
64869;DHT22;51349;52.424;10.840;2024-02-23T16:19:59;8.80;99.90
64869;DHT22;51349;52.424;10.840;2024-02-23T16:25:00;8.80;99.90
64869;DHT22;51349;52.424;10.840;2024-02-23T16:35:40;8.70;99.90
64869;DHT22;51349;52.424;10.840;2024-02-23T16:40:40;8.60;99.90
64869;DHT22;51349;52.424;10.840;2024-02-23T16:45:42;8.60;99.90
64869;DHT22;51349;52.424;10.840;2024-02-23T16:50:42;8.60;99.90
64869;DHT22;51349;52.424;10.840;2024-02-23T16:55:43;8.50;99.90
64869;DHT22;51349;52.424;10.840;2024-02-23T17:00:46;8.50;99.90
64869;DHT22;51349;52.424;10.840;2024-02-23T17:05:47;8.50;99.90
64869;DHT22;51349;52.424;10.840;2024-02-23T17:10:48;8.40;99.90
64869;DHT22;51349;52.424;10.840;2024-02-23T17:15:48;8.40;99.90
64869;DHT22;51349;52.424;10.840;2024-02-23T17:20:50;8.40;99.90
64869;DHT22;51349;52.424;10.840;2024-02-23T17:25:51;8.30;99.90
64869;DHT22;51349;52.424;10.840;2024-02-23T17:30:51;8.30;99.90
64869;DHT22;51349;52.424;10.840;2024-02-23T17:35:52;8.20;99.90
64869;DHT22;51349;52.424;10.840;2024-02-23T17:40:53;8.10;99.90
64869;DHT22;51349;52.424;10.840;2024-02-23T17:45:54;8.10;99.90
64869;DHT22;51349;52.424;10.840;2024-02-23T17:50:54;8.00;99.90
64869;DHT22;51349;52.424;10.840;2024-02-23T17:55:55;7.80;99.90
64869;DHT22;51349;52.424;10.840;2024-02-23T18:00:57;7.70;99.90
64869;DHT22;51349;52.424;10.840;2024-02-23T18:05:58;7.70;99.90
64869;DHT22;51349;52.424;10.840;2024-02-23T18:10:59;7.60;99.90
64869;DHT22;51349;52.424;10.840;2024-02-23T18:16:03;7.60;99.90
64869;DHT22;51349;52.424;10.840;2024-02-23T18:21:09;7.60;99.90
64869;DHT22;51349;52.424;10.840;2024-02-23T18:26:12;7.60;99.90
64869;DHT22;51349;52.424;10.840;2024-02-23T18:31:18;7.60;99.90
64869;DHT22;51349;52.424;10.840;2024-02-23T18:36:19;7.50;99.90
64869;DHT22;51349;52.424;10.840;2024-02-23T18:41:19;7.40;99.90
64869;DHT22;51349;52.424;10.840;2024-02-23T18:46:20;7.40;99.90
64869;DHT22;51349;52.424;10.840;2024-02-23T18:51:21;7.30;99.90
64869;DHT22;51349;52.424;10.840;2024-02-23T18:56:22;7.20;99.90
64869;DHT22;51349;52.424;10.840;2024-02-23T19:01:23;7.10;99.90
64869;DHT22;51349;52.424;10.840;2024-02-23T19:06:24;7.00;99.90
64869;DHT22;51349;52.424;10.840;2024-02-23T19:11:25;7.00;99.90
64869;DHT22;51349;52.424;10.840;2024-02-23T19:16:25;7.00;99.90
64869;DHT22;51349;52.424;10.840;2024-02-23T19:21:26;6.80;99.90
64869;DHT22;51349;52.424;10.840;2024-02-23T19:26:27;6.70;99.90
64869;DHT22;51349;52.424;10.840;2024-02-23T19:31:28;6.50;99.90
64869;DHT22;51349;52.424;10.840;2024-02-23T19:36:29;6.30;99.90
64869;DHT22;51349;52.424;10.840;2024-02-23T19:41:30;6.20;99.90
64869;DHT22;51349;52.424;10.840;2024-02-23T19:46:32;6.10;99.90
64869;DHT22;51349;52.424;10.840;2024-02-23T19:51:32;5.90;99.90
64869;DHT22;51349;52.424;10.840;2024-02-23T19:56:33;5.90;99.90
64869;DHT22;51349;52.424;10.840;2024-02-23T20:01:34;5.90;99.90
64869;DHT22;51349;52.424;10.840;2024-02-23T20:06:34;5.90;99.90
64869;DHT22;51349;52.424;10.840;2024-02-23T20:11:35;5.90;99.90
64869;DHT22;51349;52.424;10.840;2024-02-23T20:16:36;5.80;99.90
64869;DHT22;51349;52.424;10.840;2024-02-23T20:21:39;5.70;99.90
64869;DHT22;51349;52.424;10.840;2024-02-23T20:26:40;5.60;99.90
64869;DHT22;51349;52.424;10.840;2024-02-23T20:31:41;5.50;99.90
64869;DHT22;51349;52.424;10.840;2024-02-23T20:36:44;5.40;99.90
64869;DHT22;51349;52.424;10.840;2024-02-23T20:41:44;5.40;99.90
64869;DHT22;51349;52.424;10.840;2024-02-23T20:46:45;5.40;99.90
64869;DHT22;51349;52.424;10.840;2024-02-23T20:51:46;5.30;99.90
64869;DHT22;51349;52.424;10.840;2024-02-23T20:56:48;5.30;99.90
64869;DHT22;51349;52.424;10.840;2024-02-23T21:01:49;5.30;99.90
64869;DHT22;51349;52.424;10.840;2024-02-23T21:06:50;5.30;99.90
64869;DHT22;51349;52.424;10.840;2024-02-23T21:11:51;5.30;99.90
64869;DHT22;51349;52.424;10.840;2024-02-23T21:16:51;5.30;99.90
64869;DHT22;51349;52.424;10.840;2024-02-23T21:21:52;5.30;99.90
64869;DHT22;51349;52.424;10.840;2024-02-23T21:26:53;5.20;99.90
64869;DHT22;51349;52.424;10.840;2024-02-23T21:31:54;5.20;99.90
64869;DHT22;51349;52.424;10.840;2024-02-23T21:36:56;5.10;99.90
64869;DHT22;51349;52.424;10.840;2024-02-23T21:41:56;5.10;99.90
64869;DHT22;51349;52.424;10.840;2024-02-23T21:46:57;5.10;99.90
64869;DHT22;51349;52.424;10.840;2024-02-23T21:51:58;5.00;99.90
64869;DHT22;51349;52.424;10.840;2024-02-23T21:57:03;4.90;99.90
64869;DHT22;51349;52.424;10.840;2024-02-23T22:02:05;4.60;99.90
64869;DHT22;51349;52.424;10.840;2024-02-23T22:07:06;4.60;99.90
64869;DHT22;51349;52.424;10.840;2024-02-23T22:12:08;4.60;99.90
64869;DHT22;51349;52.424;10.840;2024-02-23T22:17:08;4.50;99.90
64869;DHT22;51349;52.424;10.840;2024-02-23T22:22:09;4.60;99.90
64869;DHT22;51349;52.424;10.840;2024-02-23T22:27:10;4.60;99.90
64869;DHT22;51349;52.424;10.840;2024-02-23T22:32:10;4.60;99.90
64869;DHT22;51349;52.424;10.840;2024-02-23T22:37:11;4.70;99.90
64869;DHT22;51349;52.424;10.840;2024-02-23T22:42:12;4.80;99.90
64869;DHT22;51349;52.424;10.840;2024-02-23T22:47:12;4.60;99.90
64869;DHT22;51349;52.424;10.840;2024-02-23T22:52:13;4.50;99.90
64869;DHT22;51349;52.424;10.840;2024-02-23T22:57:16;4.40;99.90
64869;DHT22;51349;52.424;10.840;2024-02-23T23:02:16;4.40;99.90
64869;DHT22;51349;52.424;10.840;2024-02-23T23:07:17;4.40;99.90
64869;DHT22;51349;52.424;10.840;2024-02-23T23:12:17;4.40;99.90
64869;DHT22;51349;52.424;10.840;2024-02-23T23:17:18;4.20;99.90
64869;DHT22;51349;52.424;10.840;2024-02-23T23:22:20;4.10;99.90
64869;DHT22;51349;52.424;10.840;2024-02-23T23:27:21;4.20;99.90
64869;DHT22;51349;52.424;10.840;2024-02-23T23:32:21;4.20;99.90
64869;DHT22;51349;52.424;10.840;2024-02-23T23:37:22;4.10;99.90
64869;DHT22;51349;52.424;10.840;2024-02-23T23:42:22;4.00;99.90
64869;DHT22;51349;52.424;10.840;2024-02-23T23:47:23;4.00;99.90
64869;DHT22;51349;52.424;10.840;2024-02-23T23:52:24;4.10;99.90
64869;DHT22;51349;52.424;10.840;2024-02-23T23:57:24;4.10;99.90
